Green Point — A8MZ6 — position and weather

sailwx.info

Track history (hours):
 
Tides and Currents Weather Stations Pressure Air Temp Water Temp Dewpoint Dewpoint Depression Visibility Wind Speed Wind Dir Waves Ship Positions

Green Point

Last reported at 2018-Jul-15 17:17 UTC. Time now 2018-Jul-22 19:55 UTC.
Position N 38°02' E 121°59'.

Length 183 m; draft 7.1 m.

Type: Tanker. MMSI: 636091389.

Date/timePositionNaut miles runAvg speedWind from/ knotsBaromVisibWave heightAir tempDewpointWater temp
2018-Jul-15 17:17N 38°02' E 121°59'6 9.7
2018-Jul-15 16:38N 38°05' E 121°53'2 9.8
2018-Jul-15 16:26N 38°06' E 121°51'4 9.8
2018-Jul-15 16:00N 38°08' E 121°46'23 9.4
2018-Jul-15 13:31N 38°21' E 121°21'110.3
2018-Jul-15 13:28N 38°21' E 121°20'4 9.7
2018-Jul-15 13:00N 38°23' E 121°15'  
2018-Jul-11 12:24N 38°19' E 119°01'  
2018-Jul-06 07:46N 38°20' E 118°59'0 0.0
2018-Jul-06 07:28N 38°20' E 118°59'0 0.1
2018-Jul-06 06:58N 38°20' E 118°59'  
Track history (hours):
 
Tides and Currents Weather Stations Pressure Air Temp Water Temp Dewpoint Dewpoint Depression Visibility Wind Speed Wind Dir Waves Ship Positions

Green Point

Last reported at 2018-Jul-15 17:17 UTC. Time now 2018-Jul-22 19:55 UTC.
Position N 38°02' E 121°59'.

Length 183 m; draft 7.1 m.

Type: Tanker. MMSI: 636091389.

Date/timePositionNaut miles runAvg speedWind from/ knotsBaromVisibWave heightAir tempDewpointWater temp
2018-Jul-15 17:17N 38°02' E 121°59'6 9.7
2018-Jul-15 16:38N 38°05' E 121°53'2 9.8
2018-Jul-15 16:26N 38°06' E 121°51'4 9.8
2018-Jul-15 16:00N 38°08' E 121°46'23 9.4
2018-Jul-15 13:31N 38°21' E 121°21'110.3
2018-Jul-15 13:28N 38°21' E 121°20'4 9.7
2018-Jul-15 13:00N 38°23' E 121°15'  
2018-Jul-11 12:24N 38°19' E 119°01'  
2018-Jul-06 07:46N 38°20' E 118°59'0 0.0
2018-Jul-06 07:28N 38°20' E 118°59'0 0.1
2018-Jul-06 06:58N 38°20' E 118°59'  

Dump ship's entire track history